Time;durP1;ratioP1;P1;durP2;ratioP2;P2;SDS_P1;SDS_P2;PMS_P1;PMS_P2;Temp;Humidity;BMP_temperature;BMP_pressure;BME280_temperature;BME280_humidity;BME280_pressure;Samples;Min_cycle;Max_cycle;Signal;HPM_P1;HPM_P2
2023/05/18 00:01:21;;;;;;;4.05;1.42;;;17.10;55.40;;;;;;10250538;28;20019;-54
2023/05/18 00:06:24;;;;;;;4.15;1.25;;;17.00;55.30;;;;;;10217225;28;20019;-53
2023/05/18 00:11:24;;;;;;;3.40;1.42;;;17.00;55.10;;;;;;10269031;28;20125;-54
2023/05/18 00:16:25;;;;;;;4.45;1.25;;;17.00;55.30;;;;;;10289831;28;20046;-54
2023/05/18 00:21:29;;;;;;;3.28;1.42;;;17.00;55.20;;;;;;10304339;28;20093;-53
2023/05/18 00:26:30;;;;;;;3.55;1.38;;;16.90;55.00;;;;;;10266697;28;20019;-54
2023/05/18 00:31:35;;;;;;;4.07;1.40;;;16.90;55.00;;;;;;10231973;28;20074;-54
2023/05/18 00:36:36;;;;;;;2.60;1.10;;;16.90;54.90;;;;;;10239435;28;20022;-54
2023/05/18 00:41:37;;;;;;;3.67;1.45;;;16.90;54.90;;;;;;10231871;28;20027;-54
2023/05/18 00:46:38;;;;;;;3.00;1.30;;;16.90;54.90;;;;;;10231797;29;20015;-54
2023/05/18 00:51:40;;;;;;;3.90;1.50;;;16.90;54.80;;;;;;10278512;28;20590;-53
2023/05/18 00:56:41;;;;;;;2.85;1.42;;;16.90;54.70;;;;;;10270313;28;20019;-54
2023/05/18 01:01:45;;;;;;;4.70;1.67;;;16.80;54.60;;;;;;10231129;29;20134;-54
2023/05/18 01:06:46;;;;;;;4.30;1.27;;;16.90;54.70;;;;;;10282452;28;20531;-53
2023/05/18 01:11:57;;;;;;;2.72;1.20;;;16.80;54.50;;;;;;10275217;28;20058;-53
2023/05/18 01:17:20;;;;;;;5.43;1.27;;;16.80;54.50;;;;;;10291698;28;20110;-54
2023/05/18 01:22:55;;;;;;;4.55;1.65;;;16.80;55.10;;;;;;10238710;28;20027;-53
2023/05/18 01:28:05;;;;;;;3.60;1.30;;;16.80;54.50;;;;;;10248658;28;20027;-53
2023/05/18 01:33:08;;;;;;;2.90;1.40;;;16.80;54.50;;;;;;10230523;28;20015;-51
2023/05/18 01:38:09;;;;;;;4.28;1.52;;;16.70;54.30;;;;;;10237762;29;20054;-54
2023/05/18 01:43:17;;;;;;;3.58;1.50;;;16.70;54.40;;;;;;10230199;28;20023;-53
2023/05/18 01:48:21;;;;;;;3.90;1.60;;;16.70;54.10;;;;;;10284636;28;20075;-54
2023/05/18 01:53:34;;;;;;;4.07;1.00;;;16.70;54.20;;;;;;10272479;28;20106;-52
2023/05/18 01:58:36;;;;;;;3.88;1.65;;;16.70;54.20;;;;;;10229740;28;20034;-55
2023/05/18 02:03:37;;;;;;;1.98;1.25;;;16.70;54.20;;;;;;10229229;29;20027;-52
2023/05/18 02:08:38;;;;;;;3.63;1.02;;;16.70;54.10;;;;;;10245753;29;20093;-54
2023/05/18 02:13:39;;;;;;;2.30;1.20;;;16.70;54.10;;;;;;10228201;28;20058;-53
2023/05/18 02:18:40;;;;;;;3.58;1.40;;;16.60;54.00;;;;;;10245720;28;20110;-55
2023/05/18 02:23:40;;;;;;;2.90;1.40;;;16.60;54.00;;;;;;10228979;28;20110;-54
2023/05/18 02:28:41;;;;;;;4.47;1.75;;;16.60;54.00;;;;;;10268188;28;20027;-54
2023/05/18 02:33:42;;;;;;;2.35;1.38;;;16.60;53.90;;;;;;10244920;28;20106;-54
2023/05/18 02:38:43;;;;;;;3.97;1.27;;;16.60;53.90;;;;;;10237395;29;20026;-53
2023/05/18 02:43:44;;;;;;;2.47;1.50;;;16.60;53.90;;;;;;10259109;28;20090;-53
2023/05/18 02:48:44;;;;;;;3.67;1.70;;;16.50;53.90;;;;;;10284976;28;20031;-54
2023/05/18 02:53:45;;;;;;;4.40;1.50;;;16.60;53.90;;;;;;10277933;28;20102;-54
2023/05/18 02:58:46;;;;;;;4.13;1.88;;;16.60;53.80;;;;;;10283506;28;20046;-53
2023/05/18 03:03:47;;;;;;;3.78;1.80;;;16.50;53.80;;;;;;10298733;28;20034;-53
2023/05/18 03:08:50;;;;;;;2.83;1.27;;;16.50;53.70;;;;;;10298990;28;20034;-53
2023/05/18 03:13:50;;;;;;;6.22;2.35;;;16.50;53.80;;;;;;10283650;28;20043;-53
2023/05/18 03:18:51;;;;;;;3.13;1.77;;;16.50;53.70;;;;;;10275228;28;20019;-52
2023/05/18 03:23:52;;;;;;;3.58;1.45;;;16.50;53.70;;;;;;10247496;28;20028;-52
2023/05/18 03:28:52;;;;;;;4.03;2.20;;;16.40;53.60;;;;;;10259310;28;20162;-53
2023/05/18 03:33:53;;;;;;;4.15;1.60;;;16.40;53.60;;;;;;10252090;28;20027;-53
2023/05/18 03:38:54;;;;;;;3.78;1.50;;;16.40;53.50;;;;;;10265444;28;20483;-51
2023/05/18 03:43:54;;;;;;;3.30;1.00;;;16.40;53.60;;;;;;10223723;28;20067;-52
2023/05/18 03:48:55;;;;;;;4.35;1.55;;;16.40;54.30;;;;;;10209226;29;20130;-54
2023/05/18 03:53:56;;;;;;;2.45;1.42;;;16.40;54.50;;;;;;10264362;28;20097;-54
2023/05/18 03:58:57;;;;;;;6.53;1.63;;;16.40;54.30;;;;;;10277591;28;20058;-52
2023/05/18 04:03:59;;;;;;;4.55;1.70;;;16.40;54.20;;;;;;10278586;28;20023;-51
2023/05/18 04:09:03;;;;;;;3.00;1.55;;;16.50;54.20;;;;;;10269213;28;20068;-52
2023/05/18 04:14:04;;;;;;;3.65;1.10;;;16.50;54.20;;;;;;10229579;28;20047;-52
2023/05/18 04:19:05;;;;;;;5.13;1.70;;;16.40;54.30;;;;;;10248413;28;20066;-51
2023/05/18 04:24:06;;;;;;;4.68;1.20;;;16.40;54.30;;;;;;10247633;29;20054;-53
2023/05/18 04:29:09;;;;;;;2.88;1.35;;;16.40;54.30;;;;;;10247184;29;20378;-53
2023/05/18 04:34:12;;;;;;;1.77;1.13;;;16.50;54.50;;;;;;10248674;28;20026;-54
2023/05/18 04:39:13;;;;;;;3.50;1.55;;;16.50;54.50;;;;;;10253274;28;20030;-54
2023/05/18 04:44:14;;;;;;;3.35;1.60;;;16.40;54.50;;;;;;10247157;28;20031;-53
2023/05/18 04:49:15;;;;;;;4.75;1.92;;;16.40;54.50;;;;;;10247100;28;20020;-53
2023/05/18 04:54:15;;;;;;;4.32;1.60;;;16.40;54.50;;;;;;10284184;28;20065;-53
2023/05/18 04:59:16;;;;;;;2.25;1.30;;;16.40;54.60;;;;;;10301426;28;20473;-53
2023/05/18 05:04:21;;;;;;;2.38;1.55;;;16.50;54.70;;;;;;10271154;28;20023;-54
2023/05/18 05:09:21;;;;;;;1.80;1.08;;;16.40;54.90;;;;;;10229632;29;20031;-52
2023/05/18 05:14:22;;;;;;;2.78;1.42;;;16.40;54.80;;;;;;10261937;28;20517;-52
2023/05/18 05:19:23;;;;;;;4.35;1.88;;;16.40;55.00;;;;;;10300274;28;20106;-53
2023/05/18 05:24:23;;;;;;;2.25;1.40;;;16.40;55.00;;;;;;10285548;28;20066;-53
2023/05/18 05:29:25;;;;;;;13.00;4.50;;;16.40;55.10;;;;;;10285513;28;20133;-54
2023/05/18 05:34:25;;;;;;;3.90;1.60;;;16.40;55.10;;;;;;10299830;28;20022;-52
2023/05/18 05:39:26;;;;;;;3.63;1.30;;;16.40;55.10;;;;;;10250049;28;20070;-53
2023/05/18 05:44:27;;;;;;;2.13;1.48;;;16.40;55.30;;;;;;10244269;28;20102;-52
2023/05/18 05:49:27;;;;;;;5.10;1.58;;;16.40;55.40;;;;;;10244379;29;20533;-52
2023/05/18 05:54:28;;;;;;;2.33;1.30;;;16.50;55.50;;;;;;10282535;28;20466;-53
2023/05/18 05:59:29;;;;;;;2.90;1.50;;;16.50;55.60;;;;;;10284272;28;20580;-53
2023/05/18 06:04:29;;;;;;;3.65;1.42;;;16.40;55.70;;;;;;10299015;28;20062;-54
2023/05/18 06:09:30;;;;;;;2.38;1.33;;;16.50;55.60;;;;;;10298662;28;20105;-53
2023/05/18 06:14:31;;;;;;;2.30;1.55;;;16.40;55.70;;;;;;10283717;28;20065;-53
2023/05/18 06:19:32;;;;;;;4.85;2.00;;;16.50;55.80;;;;;;10283357;28;20130;-53
2023/05/18 06:24:32;;;;;;;3.80;1.38;;;16.50;55.80;;;;;;10298379;28;20095;-52
2023/05/18 06:29:33;;;;;;;3.03;1.40;;;16.40;56.00;;;;;;10265454;28;20113;-54
2023/05/18 06:34:34;;;;;;;2.97;1.25;;;16.40;56.00;;;;;;10280822;28;20046;-54
2023/05/18 06:39:35;;;;;;;4.85;1.50;;;16.50;56.20;;;;;;10228013;28;20024;-53
2023/05/18 06:44:35;;;;;;;4.40;1.70;;;16.50;56.10;;;;;;10226222;29;20031;-52
2023/05/18 06:49:36;;;;;;;7.40;1.98;;;16.40;56.70;;;;;;10260763;28;20035;-52
2023/05/18 06:54:37;;;;;;;5.60;1.58;;;16.50;57.20;;;;;;10259712;28;20450;-53
2023/05/18 06:59:37;;;;;;;10.02;2.88;;;16.50;57.00;;;;;;10263970;28;20037;-53
2023/05/18 07:04:38;;;;;;;24.63;2.90;;;16.60;57.40;;;;;;10264268;28;20489;-54
2023/05/18 07:09:42;;;;;;;12.90;2.30;;;16.60;57.70;;;;;;10244410;28;20031;-53
2023/05/18 07:14:42;;;;;;;18.23;3.08;;;16.70;58.00;;;;;;10268506;28;20063;-54
2023/05/18 07:19:43;;;;;;;5.05;2.08;;;16.70;58.10;;;;;;10243829;28;20027;-53
2023/05/18 07:24:44;;;;;;;14.43;3.13;;;16.70;58.10;;;;;;10229121;29;20445;-54
2023/05/18 07:29:44;;;;;;;11.23;2.63;;;16.70;58.20;;;;;;10243788;29;20538;-53
2023/05/18 07:34:48;;;;;;;10.98;3.13;;;16.80;58.20;;;;;;10251181;28;20046;-53
2023/05/18 07:39:49;;;;;;;16.40;3.17;;;16.80;58.30;;;;;;10243932;28;20015;-56
2023/05/18 07:44:49;;;;;;;9.43;3.00;;;16.80;58.40;;;;;;10214687;29;20024;-52
2023/05/18 07:49:50;;;;;;;9.25;2.38;;;16.90;58.20;;;;;;10254001;28;20114;-53
2023/05/18 07:54:53;;;;;;;8.25;2.75;;;16.80;58.00;;;;;;10291182;28;20103;-53
2023/05/18 07:59:54;;;;;;;6.97;2.70;;;16.90;58.10;;;;;;10225788;29;20147;-53
2023/05/18 08:04:55;;;;;;;7.65;2.42;;;16.80;57.90;;;;;;10250615;28;20027;-52
2023/05/18 08:09:55;;;;;;;7.03;2.13;;;16.80;57.50;;;;;;10250253;28;20538;-53
2023/05/18 08:14:56;;;;;;;6.20;2.30;;;16.80;57.50;;;;;;10258371;28;20042;-53
2023/05/18 08:19:57;;;;;;;6.97;2.08;;;16.80;57.40;;;;;;10290517;28;20100;-53
2023/05/18 08:24:59;;;;;;;5.50;2.63;;;16.80;57.50;;;;;;10248083;29;20055;-52
2023/05/18 08:30:00;;;;;;;6.90;2.22;;;16.80;57.30;;;;;;10274336;28;20031;-53
2023/05/18 08:35:05;;;;;;;8.88;1.92;;;16.80;57.40;;;;;;10295454;28;20015;-55
2023/05/18 08:40:06;;;;;;;9.75;1.83;;;16.80;57.60;;;;;;10262539;28;20027;-54
2023/05/18 08:45:21;;;;;;;5.10;2.40;;;16.80;57.70;;;;;;10232258;29;20046;-53
2023/05/18 08:50:23;;;;;;;3.97;1.88;;;16.80;57.10;;;;;;10242790;28;20030;-52
2023/05/18 08:55:25;;;;;;;4.53;2.00;;;16.70;55.70;;;;;;10302423;28;20023;-53
2023/05/18 09:00:26;;;;;;;7.47;2.53;;;16.70;56.20;;;;;;10296353;28;20031;-51
2023/05/18 09:05:27;;;;;;;6.15;1.80;;;16.70;54.10;;;;;;10250660;28;20031;-53
2023/05/18 09:10:30;;;;;;;5.05;2.08;;;16.70;54.90;;;;;;10285918;28;20576;-53
2023/05/18 09:15:34;;;;;;;5.97;2.05;;;16.70;54.20;;;;;;10287848;28;20078;-53
2023/05/18 09:20:34;;;;;;;5.15;2.35;;;16.70;53.40;;;;;;10268800;28;20037;-53
2023/05/18 09:25:41;;;;;;;9.38;3.03;;;16.70;52.50;;;;;;10287486;28;20031;-54
2023/05/18 09:30:43;;;;;;;7.38;2.05;;;16.60;52.80;;;;;;10301922;28;20031;-54
2023/05/18 09:35:47;;;;;;;8.80;2.40;;;16.70;52.60;;;;;;10289286;28;20039;-52
2023/05/18 09:40:49;;;;;;;7.00;2.85;;;16.70;52.50;;;;;;10237736;28;20019;-51
2023/05/18 09:45:49;;;;;;;5.93;2.20;;;16.70;52.00;;;;;;10250117;28;20631;-53
2023/05/18 09:50:50;;;;;;;8.27;2.85;;;16.60;51.20;;;;;;10243288;28;20217;-52
2023/05/18 09:55:51;;;;;;;9.60;3.13;;;16.70;51.80;;;;;;10286687;28;20080;-53
2023/05/18 10:00:55;;;;;;;15.68;2.60;;;16.80;51.60;;;;;;10272071;28;20541;-51
2023/05/18 10:06:03;;;;;;;5.72;2.40;;;16.80;51.70;;;;;;10275088;28;20019;-52
2023/05/18 10:11:04;;;;;;;6.68;2.60;;;16.80;51.70;;;;;;10270122;28;20094;-47
2023/05/18 10:16:07;;;;;;;6.82;2.50;;;16.90;51.80;;;;;;10228406;28;20092;-52
2023/05/18 10:21:08;;;;;;;9.48;2.70;;;16.90;52.20;;;;;;10262870;28;20508;-53
2023/05/18 10:26:09;;;;;;;10.60;2.70;;;16.90;52.20;;;;;;10299455;28;20033;-53
2023/05/18 10:31:10;;;;;;;10.35;2.90;;;16.90;52.40;;;;;;10270511;28;20027;-49
2023/05/18 10:36:11;;;;;;;5.78;2.30;;;17.10;52.50;;;;;;10249025;28;20383;-52
2023/05/18 10:41:12;;;;;;;29.75;21.27;;;17.20;52.40;;;;;;10220022;29;20134;-54
2023/05/18 10:46:15;;;;;;;46.30;35.92;;;17.20;53.00;;;;;;10276852;28;20039;-54
2023/05/18 10:51:17;;;;;;;46.50;32.60;;;17.20;52.60;;;;;;10239015;28;20425;-56
2023/05/18 10:56:18;;;;;;;45.40;31.42;;;17.30;52.20;;;;;;10238060;28;20042;-53
2023/05/18 11:01:19;;;;;;;32.35;24.35;;;17.30;52.00;;;;;;10299278;28;20033;-53
2023/05/18 11:06:23;;;;;;;39.17;17.13;;;17.30;52.00;;;;;;10284093;28;20031;-52
2023/05/18 11:11:27;;;;;;;23.27;14.80;;;17.30;54.00;;;;;;10270523;28;20031;-56
2023/05/18 11:16:35;;;;;;;20.17;15.13;;;17.30;53.30;;;;;;10223791;29;20180;-56
2023/05/18 11:21:35;;;;;;;22.83;12.38;;;17.30;53.30;;;;;;10242246;29;20027;-56
2023/05/18 11:26:43;;;;;;;19.73;11.82;;;17.30;53.70;;;;;;10221966;29;20051;-55
2023/05/18 11:31:46;;;;;;;24.05;12.57;;;17.40;53.70;;;;;;10217144;28;20058;-55
2023/05/18 11:36:55;;;;;;;29.85;11.60;;;17.30;53.50;;;;;;10198664;28;20347;-51
2023/05/18 11:42:22;;;;;;;18.33;7.43;;;17.30;54.20;;;;;;10199748;29;20027;-55
2023/05/18 11:47:30;;;;;;;19.55;7.40;;;17.30;53.70;;;;;;10203559;29;20047;-54
2023/05/18 11:52:31;;;;;;;37.83;7.00;;;17.40;53.70;;;;;;10202596;29;20039;-55
2023/05/18 11:57:34;;;;;;;24.65;7.03;;;17.40;54.10;;;;;;10203413;29;20027;-55
2023/05/18 12:02:35;;;;;;;17.35;6.45;;;17.40;54.20;;;;;;10202032;29;20016;-55
2023/05/18 12:07:37;;;;;;;21.50;6.68;;;17.50;54.70;;;;;;10200170;29;20071;-53
2023/05/18 12:12:39;;;;;;;16.25;5.18;;;17.40;55.40;;;;;;10208520;28;20050;-57
2023/05/18 12:17:45;;;;;;;22.23;6.55;;;17.50;55.40;;;;;;10236129;28;20047;-54
2023/05/18 12:22:50;;;;;;;16.48;6.43;;;17.60;55.70;;;;;;10240980;29;20426;-53
2023/05/18 12:27:53;;;;;;;16.20;5.45;;;17.60;56.20;;;;;;10225697;28;20023;-50
2023/05/18 12:32:56;;;;;;;18.33;7.03;;;17.60;55.80;;;;;;10214558;29;20027;-55
2023/05/18 12:38:00;;;;;;;11.98;5.20;;;17.60;56.00;;;;;;10238398;28;20026;-53
2023/05/18 12:43:03;;;;;;;21.13;5.00;;;17.60;55.70;;;;;;10247848;29;20030;-55
2023/05/18 12:48:10;;;;;;;23.90;7.13;;;17.70;55.30;;;;;;10213988;29;20023;-55
2023/05/18 12:53:10;;;;;;;36.60;7.95;;;17.70;55.20;;;;;;10245388;28;20418;-55
2023/05/18 12:58:17;;;;;;;25.30;5.90;;;17.70;55.40;;;;;;10233480;28;20031;-53
2023/05/18 13:03:23;;;;;;;17.63;5.28;;;17.70;54.90;;;;;;10248453;29;20016;-54
2023/05/18 13:08:23;;;;;;;17.40;5.10;;;17.70;54.60;;;;;;10230486;29;20698;-54
2023/05/18 13:13:24;;;;;;;18.70;4.65;;;17.70;54.50;;;;;;10247950;29;20051;-53
2023/05/18 13:18:27;;;;;;;13.98;5.35;;;17.70;54.50;;;;;;10246546;28;20166;-53
2023/05/18 13:23:29;;;;;;;16.00;5.43;;;17.70;54.10;;;;;;10230839;28;20026;-54
2023/05/18 13:28:30;;;;;;;10.88;4.32;;;17.70;54.20;;;;;;10230751;29;20030;-53
2023/05/18 13:33:30;;;;;;;19.55;4.47;;;17.70;53.80;;;;;;10247424;28;20030;-55
2023/05/18 13:38:34;;;;;;;9.65;3.72;;;17.70;53.50;;;;;;10254226;28;20041;-55
2023/05/18 13:43:35;;;;;;;8.50;3.30;;;17.70;53.50;;;;;;10246797;28;20051;-46
2023/05/18 13:48:35;;;;;;;9.60;3.58;;;17.70;53.20;;;;;;10246695;28;20043;-53
2023/05/18 13:53:36;;;;;;;11.00;4.05;;;17.70;53.30;;;;;;10229795;28;20027;-52
2023/05/18 13:58:37;;;;;;;12.05;3.47;;;17.70;53.20;;;;;;10229302;29;20584;-53
2023/05/18 14:03:39;;;;;;;11.48;3.97;;;17.70;53.00;;;;;;10246478;28;20126;-51
2023/05/18 14:08:40;;;;;;;7.53;2.85;;;17.70;53.00;;;;;;10245130;28;20054;-53
2023/05/18 14:13:40;;;;;;;10.68;4.05;;;17.70;53.00;;;;;;10228532;28;20126;-53
2023/05/18 14:18:41;;;;;;;12.68;3.30;;;17.60;52.90;;;;;;10242828;29;20070;-54
2023/05/18 14:23:41;;;;;;;13.18;4.20;;;17.70;52.70;;;;;;10228178;29;20172;-54
2023/05/18 14:28:42;;;;;;;10.38;3.40;;;17.70;53.40;;;;;;10245202;28;20505;-55
2023/05/18 14:33:43;;;;;;;13.35;3.60;;;17.70;53.00;;;;;;10245279;29;20047;-55
2023/05/18 14:38:45;;;;;;;11.70;3.55;;;17.70;53.00;;;;;;10234758;29;20071;-53
2023/05/18 14:43:46;;;;;;;8.38;3.13;;;17.70;53.00;;;;;;10227874;29;20086;-55
2023/05/18 14:48:46;;;;;;;8.23;2.95;;;17.60;52.80;;;;;;10227523;29;20055;-53
2023/05/18 14:53:47;;;;;;;7.30;3.00;;;17.70;52.70;;;;;;10243931;28;20606;-54
2023/05/18 14:58:48;;;;;;;9.55;3.25;;;17.70;52.80;;;;;;10244449;28;20158;-53
2023/05/18 15:03:48;;;;;;;7.55;2.75;;;17.70;52.70;;;;;;10227244;29;20648;-54
2023/05/18 15:08:49;;;;;;;9.27;2.90;;;17.60;52.80;;;;;;10226977;29;20602;-53
2023/05/18 15:13:50;;;;;;;9.70;3.40;;;17.60;52.80;;;;;;10244195;29;20090;-51
2023/05/18 15:18:50;;;;;;;17.30;3.75;;;17.60;52.90;;;;;;10226823;29;20047;-54
2023/05/18 15:23:51;;;;;;;12.43;3.60;;;17.60;52.90;;;;;;10238057;28;20062;-55
2023/05/18 15:28:52;;;;;;;10.98;3.45;;;17.60;53.40;;;;;;10237325;28;20110;-54
2023/05/18 15:33:52;;;;;;;9.38;3.33;;;17.70;53.40;;;;;;10225781;29;20022;-55
2023/05/18 15:38:53;;;;;;;17.52;3.70;;;17.70;53.50;;;;;;10250283;28;20023;-54
2023/05/18 15:43:54;;;;;;;10.02;3.58;;;17.70;53.40;;;;;;10240629;29;20614;-56
2023/05/18 15:48:55;;;;;;;10.60;3.30;;;17.70;53.70;;;;;;10216426;29;20106;-55
2023/05/18 15:53:56;;;;;;;8.43;3.67;;;17.70;53.90;;;;;;10237049;29;20115;-53
2023/05/18 15:58:56;;;;;;;6.25;3.58;;;17.70;54.00;;;;;;10227039;28;20028;-56
2023/05/18 16:03:57;;;;;;;13.70;5.45;;;17.70;53.80;;;;;;10244344;28;20098;-55
2023/05/18 16:08:58;;;;;;;15.70;4.90;;;17.70;53.90;;;;;;10250021;29;20035;-56
2023/05/18 16:13:59;;;;;;;11.45;4.85;;;17.70;54.10;;;;;;10230837;29;20188;-52
2023/05/18 16:19:01;;;;;;;13.65;6.28;;;17.70;54.20;;;;;;10248011;28;20026;-54
2023/05/18 16:24:01;;;;;;;11.57;6.53;;;17.90;56.90;;;;;;10252927;28;20102;-54
2023/05/18 16:29:03;;;;;;;15.60;6.35;;;18.00;56.40;;;;;;10255991;28;20683;-52
2023/05/18 16:34:04;;;;;;;15.75;6.47;;;18.10;57.00;;;;;;10251551;28;20019;-54
2023/05/18 16:39:06;;;;;;;13.35;5.05;;;18.20;56.90;;;;;;10231892;28;20458;-53
2023/05/18 16:44:07;;;;;;;16.35;5.30;;;18.30;56.40;;;;;;10232367;28;20386;-53
2023/05/18 16:49:07;;;;;;;16.98;5.53;;;18.30;56.10;;;;;;10248404;28;20031;-53
2023/05/18 16:54:08;;;;;;;14.65;5.57;;;18.30;56.10;;;;;;10244284;28;20135;-53
2023/05/18 16:59:09;;;;;;;9.95;4.68;;;18.30;55.90;;;;;;10230069;29;20062;-53
2023/05/18 17:04:09;;;;;;;18.88;5.38;;;18.30;55.80;;;;;;10248189;29;20015;-51
2023/05/18 17:09:10;;;;;;;20.50;4.53;;;18.00;56.10;;;;;;10228851;29;20110;-54
2023/05/18 17:14:11;;;;;;;15.45;4.90;;;17.90;56.60;;;;;;10226649;29;20082;-53
2023/05/18 17:19:12;;;;;;;20.02;5.60;;;17.90;56.90;;;;;;10256844;28;20114;-58
2023/05/18 17:24:13;;;;;;;11.43;4.25;;;17.80;57.00;;;;;;10228312;28;20031;-52
2023/05/18 17:29:13;;;;;;;13.23;4.70;;;17.80;56.90;;;;;;10241993;29;20709;-54
2023/05/18 17:34:14;;;;;;;10.38;3.78;;;17.80;56.90;;;;;;10237554;28;20150;-51
2023/05/18 17:39:15;;;;;;;13.85;4.43;;;17.80;56.80;;;;;;10233689;29;20016;-53
2023/05/18 17:44:16;;;;;;;9.43;4.43;;;17.80;57.30;;;;;;10224850;29;20034;-53
2023/05/18 17:49:18;;;;;;;12.23;4.72;;;17.80;57.40;;;;;;10234611;28;20086;-53
2023/05/18 17:54:18;;;;;;;13.15;4.75;;;17.80;56.80;;;;;;10238166;28;20078;-51
2023/05/18 17:59:19;;;;;;;11.75;4.78;;;17.80;56.80;;;;;;10255170;28;20158;-53
2023/05/18 18:04:21;;;;;;;12.18;3.70;;;17.80;58.00;;;;;;10221615;28;20439;-52
2023/05/18 18:09:21;;;;;;;10.40;3.42;;;17.80;58.20;;;;;;10251198;28;20503;-54
2023/05/18 18:14:22;;;;;;;7.28;3.58;;;17.70;56.70;;;;;;10211018;28;20054;-54
2023/05/18 18:19:23;;;;;;;9.25;3.60;;;17.70;57.10;;;;;;10237824;28;20023;-55
2023/05/18 18:24:23;;;;;;;12.88;3.58;;;17.60;56.60;;;;;;10201034;28;20175;-54
2023/05/18 18:29:28;;;;;;;13.98;3.25;;;17.70;57.10;;;;;;10239735;28;20058;-53
2023/05/18 18:34:29;;;;;;;12.02;3.53;;;17.70;57.50;;;;;;10265951;28;20553;-55
2023/05/18 18:39:29;;;;;;;9.50;3.92;;;17.70;57.80;;;;;;10247763;28;20106;-54
2023/05/18 18:44:30;;;;;;;11.98;3.03;;;17.70;57.80;;;;;;10242717;28;20102;-54
2023/05/18 18:49:31;;;;;;;11.82;3.05;;;17.70;57.90;;;;;;10244043;29;20639;-54
2023/05/18 18:54:32;;;;;;;6.18;3.10;;;17.70;58.00;;;;;;10227009;29;20042;-55
2023/05/18 18:59:34;;;;;;;9.23;3.42;;;17.70;58.10;;;;;;10244033;28;20114;-55
2023/05/18 19:04:34;;;;;;;5.32;3.53;;;17.70;58.30;;;;;;10244154;28;20855;-55
2023/05/18 19:09:35;;;;;;;7.43;3.20;;;17.70;58.60;;;;;;10231329;28;20094;-55
2023/05/18 19:14:36;;;;;;;5.90;3.30;;;17.60;58.70;;;;;;10230423;28;20739;-53
2023/05/18 19:19:36;;;;;;;8.50;3.10;;;17.60;59.20;;;;;;10223770;29;20122;-53
2023/05/18 19:24:38;;;;;;;5.70;2.55;;;17.60;59.10;;;;;;10239842;28;20102;-54
2023/05/18 19:29:39;;;;;;;6.40;2.75;;;17.60;59.90;;;;;;10226505;29;20082;-54
2023/05/18 19:34:40;;;;;;;6.20;3.22;;;17.50;59.30;;;;;;10238551;28;20151;-54
2023/05/18 19:39:40;;;;;;;7.03;2.97;;;17.50;59.10;;;;;;10229981;28;20312;-54
2023/05/18 19:44:41;;;;;;;4.03;2.70;;;17.50;59.10;;;;;;10237933;28;20135;-54
2023/05/18 19:49:42;;;;;;;5.25;2.60;;;17.50;59.10;;;;;;10251160;28;20839;-54
2023/05/18 19:54:43;;;;;;;4.60;2.58;;;17.50;59.20;;;;;;10251208;28;20019;-54
2023/05/18 19:59:43;;;;;;;5.50;2.92;;;17.50;59.20;;;;;;10250944;29;20094;-54
2023/05/18 20:04:46;;;;;;;7.53;2.67;;;17.50;59.20;;;;;;10217541;28;20475;-55
2023/05/18 20:09:47;;;;;;;3.50;2.30;;;17.50;59.20;;;;;;10233749;29;20491;-53
2023/05/18 20:14:47;;;;;;;3.50;2.30;;;17.40;59.10;;;;;;10250115;28;20082;-55
2023/05/18 20:19:52;;;;;;;4.22;1.98;;;17.40;59.10;;;;;;10250085;28;20497;-54
2023/05/18 20:24:53;;;;;;;3.83;2.05;;;17.40;59.10;;;;;;10250208;28;20056;-55
2023/05/18 20:29:55;;;;;;;5.20;2.60;;;17.40;59.20;;;;;;10248034;28;20537;-54
2023/05/18 20:34:55;;;;;;;11.23;2.67;;;17.40;59.30;;;;;;10256370;28;20015;-54
2023/05/18 20:39:56;;;;;;;5.55;2.55;;;17.30;59.30;;;;;;10249152;28;20071;-55
2023/05/18 20:44:57;;;;;;;4.13;2.10;;;17.40;59.30;;;;;;10248177;28;20114;-55
2023/05/18 20:49:58;;;;;;;2.78;1.98;;;17.30;59.30;;;;;;10229670;28;20023;-55
2023/05/18 20:54:59;;;;;;;3.90;2.20;;;17.30;59.20;;;;;;10246839;28;20081;-55
2023/05/18 21:00:00;;;;;;;3.97;2.13;;;17.30;59.10;;;;;;10248387;28;20107;-55
2023/05/18 21:05:01;;;;;;;4.43;2.40;;;17.30;59.10;;;;;;10263199;28;20099;-56
2023/05/18 21:10:03;;;;;;;3.45;2.20;;;17.30;59.10;;;;;;10246784;28;20082;-55
2023/05/18 21:15:04;;;;;;;3.63;2.53;;;17.30;59.00;;;;;;10246627;29;20047;-55
2023/05/18 21:20:07;;;;;;;4.75;2.33;;;17.30;59.00;;;;;;10262908;28;20027;-54
2023/05/18 21:25:08;;;;;;;2.65;1.98;;;17.20;59.00;;;;;;10247861;29;20027;-54
2023/05/18 21:30:11;;;;;;;4.30;2.42;;;17.20;59.00;;;;;;10230522;29;20628;-54
2023/05/18 21:35:11;;;;;;;5.15;2.70;;;17.20;59.00;;;;;;10237509;28;20042;-55
2023/05/18 21:40:12;;;;;;;3.95;2.42;;;17.20;59.00;;;;;;10247349;29;20479;-55
2023/05/18 21:45:13;;;;;;;3.40;1.85;;;17.20;59.00;;;;;;10246900;29;20023;-55
2023/05/18 21:50:13;;;;;;;3.30;2.20;;;17.20;59.00;;;;;;10229810;28;20611;-55
2023/05/18 21:55:14;;;;;;;3.22;2.38;;;17.20;59.10;;;;;;10261210;28;20055;-54
2023/05/18 22:00:16;;;;;;;2.75;2.15;;;17.20;59.10;;;;;;10246310;28;20042;-55
2023/05/18 22:05:18;;;;;;;4.63;3.38;;;17.20;59.20;;;;;;10245930;28;20553;-55
2023/05/18 22:10:18;;;;;;;2.83;2.00;;;17.20;59.30;;;;;;10245015;28;20133;-55
2023/05/18 22:15:20;;;;;;;4.10;2.25;;;17.20;59.30;;;;;;10245891;28;20167;-54
2023/05/18 22:20:22;;;;;;;7.43;2.78;;;17.20;59.30;;;;;;10245716;28;20047;-55
2023/05/18 22:25:24;;;;;;;3.33;2.60;;;17.20;59.40;;;;;;10245348;28;20023;-55
2023/05/18 22:30:27;;;;;;;4.18;2.20;;;17.10;59.30;;;;;;10245398;29;20039;-55
2023/05/18 22:35:28;;;;;;;2.90;2.47;;;17.10;59.30;;;;;;10266979;28;20047;-55
2023/05/18 22:40:28;;;;;;;3.80;2.08;;;17.10;59.30;;;;;;10245356;28;20041;-55
2023/05/18 22:45:29;;;;;;;2.47;1.90;;;17.20;59.40;;;;;;10240722;28;20114;-54
2023/05/18 22:50:30;;;;;;;3.35;2.28;;;17.10;59.40;;;;;;10227149;29;20122;-55
2023/05/18 22:55:31;;;;;;;3.53;2.13;;;17.10;59.40;;;;;;10244358;28;20019;-55
2023/05/18 23:00:32;;;;;;;3.33;2.20;;;17.10;59.40;;;;;;10243187;29;20451;-55
2023/05/18 23:05:35;;;;;;;3.60;2.00;;;17.10;59.40;;;;;;10243685;28;20118;-54
2023/05/18 23:10:36;;;;;;;3.78;2.30;;;17.10;59.40;;;;;;10242376;28;20086;-55
2023/05/18 23:15:37;;;;;;;4.68;2.33;;;17.10;59.40;;;;;;10243452;28;20070;-55
2023/05/18 23:20:38;;;;;;;3.75;2.80;;;17.10;59.40;;;;;;10243892;28;20114;-55
2023/05/18 23:25:38;;;;;;;3.15;1.88;;;17.10;59.40;;;;;;10226419;29;20066;-55
2023/05/18 23:30:39;;;;;;;3.35;1.98;;;17.00;59.40;;;;;;10243552;28;20114;-55
2023/05/18 23:35:41;;;;;;;2.88;2.13;;;17.00;59.40;;;;;;10233392;28;20019;-55
2023/05/18 23:40:43;;;;;;;2.63;1.83;;;17.00;59.50;;;;;;10241293;28;20031;-55
2023/05/18 23:45:44;;;;;;;3.13;1.88;;;17.00;59.50;;;;;;10226095;28;20030;-55
2023/05/18 23:50:46;;;;;;;2.63;2.13;;;17.00;59.50;;;;;;10241740;29;20043;-57
2023/05/18 23:55:48;;;;;;;6.05;1.63;;;17.00;59.50;;;;;;10226173;28;20553;-55
